sensor_id;sensor_type;location;lat;lon;timestamp;P1;durP1;ratioP1;P2;durP2;ratioP2
49384;SDS011;36795;45.028;38.968;2022-08-16T00:00:45;32.85;;;12.70;;
49384;SDS011;36795;45.028;38.968;2022-08-16T00:03:32;28.50;;;12.82;;
49384;SDS011;36795;45.028;38.968;2022-08-16T00:06:18;29.70;;;12.57;;
49384;SDS011;36795;45.028;38.968;2022-08-16T00:09:05;30.17;;;11.93;;
49384;SDS011;36795;45.028;38.968;2022-08-16T00:11:51;27.27;;;11.27;;
49384;SDS011;36795;45.028;38.968;2022-08-16T00:14:38;27.92;;;11.55;;
49384;SDS011;36795;45.028;38.968;2022-08-16T00:17:24;33.10;;;12.48;;
49384;SDS011;36795;45.028;38.968;2022-08-16T00:20:11;28.33;;;12.57;;
49384;SDS011;36795;45.028;38.968;2022-08-16T00:22:58;29.00;;;12.05;;
49384;SDS011;36795;45.028;38.968;2022-08-16T00:25:44;31.15;;;12.88;;
49384;SDS011;36795;45.028;38.968;2022-08-16T00:28:30;28.83;;;12.02;;
49384;SDS011;36795;45.028;38.968;2022-08-16T00:31:16;32.33;;;12.95;;
49384;SDS011;36795;45.028;38.968;2022-08-16T00:34:02;31.62;;;12.50;;
49384;SDS011;36795;45.028;38.968;2022-08-16T00:36:49;31.67;;;12.32;;
49384;SDS011;36795;45.028;38.968;2022-08-16T00:39:35;33.42;;;11.43;;
49384;SDS011;36795;45.028;38.968;2022-08-16T00:42:22;30.73;;;12.23;;
49384;SDS011;36795;45.028;38.968;2022-08-16T00:48:17;31.42;;;11.85;;
49384;SDS011;36795;45.028;38.968;2022-08-16T00:51:03;27.37;;;11.32;;
49384;SDS011;36795;45.028;38.968;2022-08-16T00:53:51;30.33;;;12.18;;
49384;SDS011;36795;45.028;38.968;2022-08-16T00:56:38;29.60;;;11.70;;
49384;SDS011;36795;45.028;38.968;2022-08-16T00:59:29;29.55;;;10.43;;
49384;SDS011;36795;45.028;38.968;2022-08-16T01:02:18;29.45;;;11.18;;
49384;SDS011;36795;45.028;38.968;2022-08-16T01:05:05;26.15;;;11.27;;
49384;SDS011;36795;45.028;38.968;2022-08-16T01:07:51;31.62;;;11.75;;
49384;SDS011;36795;45.028;38.968;2022-08-16T01:10:38;29.55;;;10.75;;
49384;SDS011;36795;45.028;38.968;2022-08-16T01:13:25;28.30;;;11.93;;
49384;SDS011;36795;45.028;38.968;2022-08-16T01:16:15;27.30;;;10.80;;
49384;SDS011;36795;45.028;38.968;2022-08-16T01:19:15;25.37;;;10.60;;
49384;SDS011;36795;45.028;38.968;2022-08-16T01:25:37;27.52;;;10.98;;
49384;SDS011;36795;45.028;38.968;2022-08-16T01:28:27;24.75;;;11.00;;
49384;SDS011;36795;45.028;38.968;2022-08-16T01:31:13;27.52;;;10.95;;
49384;SDS011;36795;45.028;38.968;2022-08-16T01:34:01;29.77;;;10.82;;
49384;SDS011;36795;45.028;38.968;2022-08-16T01:36:54;27.35;;;10.52;;
49384;SDS011;36795;45.028;38.968;2022-08-16T01:39:44;30.33;;;10.70;;
49384;SDS011;36795;45.028;38.968;2022-08-16T01:42:30;26.27;;;10.23;;
49384;SDS011;36795;45.028;38.968;2022-08-16T01:45:17;25.55;;;10.00;;
49384;SDS011;36795;45.028;38.968;2022-08-16T01:48:04;24.75;;;10.40;;
49384;SDS011;36795;45.028;38.968;2022-08-16T01:50:50;31.08;;;10.93;;
49384;SDS011;36795;45.028;38.968;2022-08-16T01:53:36;31.75;;;11.10;;
49384;SDS011;36795;45.028;38.968;2022-08-16T01:56:23;26.10;;;12.00;;
49384;SDS011;36795;45.028;38.968;2022-08-16T01:59:12;30.52;;;10.55;;
49384;SDS011;36795;45.028;38.968;2022-08-16T02:02:00;28.00;;;10.93;;
49384;SDS011;36795;45.028;38.968;2022-08-16T02:04:46;28.73;;;10.65;;
49384;SDS011;36795;45.028;38.968;2022-08-16T02:07:32;25.73;;;10.82;;
49384;SDS011;36795;45.028;38.968;2022-08-16T02:10:19;28.02;;;11.63;;
49384;SDS011;36795;45.028;38.968;2022-08-16T02:13:07;29.75;;;11.43;;
49384;SDS011;36795;45.028;38.968;2022-08-16T02:15:53;28.98;;;12.25;;
49384;SDS011;36795;45.028;38.968;2022-08-16T02:18:39;28.25;;;12.25;;
49384;SDS011;36795;45.028;38.968;2022-08-16T02:21:27;31.27;;;12.82;;
49384;SDS011;36795;45.028;38.968;2022-08-16T02:24:14;31.77;;;12.80;;
49384;SDS011;36795;45.028;38.968;2022-08-16T02:27:00;25.33;;;12.02;;
49384;SDS011;36795;45.028;38.968;2022-08-16T02:29:46;30.92;;;11.93;;
49384;SDS011;36795;45.028;38.968;2022-08-16T02:32:33;28.75;;;12.07;;
49384;SDS011;36795;45.028;38.968;2022-08-16T02:35:19;29.40;;;11.70;;
49384;SDS011;36795;45.028;38.968;2022-08-16T02:38:06;28.48;;;11.60;;
49384;SDS011;36795;45.028;38.968;2022-08-16T02:40:53;26.90;;;11.25;;
49384;SDS011;36795;45.028;38.968;2022-08-16T02:43:40;26.08;;;11.15;;
49384;SDS011;36795;45.028;38.968;2022-08-16T02:46:27;27.87;;;12.55;;
49384;SDS011;36795;45.028;38.968;2022-08-16T02:49:14;28.92;;;11.60;;
49384;SDS011;36795;45.028;38.968;2022-08-16T02:52:00;36.83;;;11.35;;
49384;SDS011;36795;45.028;38.968;2022-08-16T02:54:47;29.73;;;11.80;;
49384;SDS011;36795;45.028;38.968;2022-08-16T02:57:33;28.62;;;12.57;;
49384;SDS011;36795;45.028;38.968;2022-08-16T03:00:20;29.42;;;13.27;;
49384;SDS011;36795;45.028;38.968;2022-08-16T03:03:06;29.48;;;12.20;;
49384;SDS011;36795;45.028;38.968;2022-08-16T03:05:53;27.98;;;12.05;;
49384;SDS011;36795;45.028;38.968;2022-08-16T03:08:40;29.90;;;11.57;;
49384;SDS011;36795;45.028;38.968;2022-08-16T03:11:26;29.17;;;11.77;;
49384;SDS011;36795;45.028;38.968;2022-08-16T03:14:12;28.65;;;11.90;;
49384;SDS011;36795;45.028;38.968;2022-08-16T03:16:59;33.70;;;13.15;;
49384;SDS011;36795;45.028;38.968;2022-08-16T03:19:46;28.92;;;12.18;;
49384;SDS011;36795;45.028;38.968;2022-08-16T03:22:33;32.85;;;16.20;;
49384;SDS011;36795;45.028;38.968;2022-08-16T03:25:19;29.87;;;13.30;;
49384;SDS011;36795;45.028;38.968;2022-08-16T03:28:07;31.73;;;12.45;;
49384;SDS011;36795;45.028;38.968;2022-08-16T03:30:54;30.67;;;13.60;;
49384;SDS011;36795;45.028;38.968;2022-08-16T03:33:41;30.12;;;12.57;;
49384;SDS011;36795;45.028;38.968;2022-08-16T03:36:27;32.25;;;13.90;;
49384;SDS011;36795;45.028;38.968;2022-08-16T03:39:14;34.08;;;13.88;;
49384;SDS011;36795;45.028;38.968;2022-08-16T03:42:01;31.67;;;14.15;;
49384;SDS011;36795;45.028;38.968;2022-08-16T03:44:48;33.83;;;13.15;;
49384;SDS011;36795;45.028;38.968;2022-08-16T03:47:34;32.00;;;14.05;;
49384;SDS011;36795;45.028;38.968;2022-08-16T03:50:21;34.33;;;15.18;;
49384;SDS011;36795;45.028;38.968;2022-08-16T03:53:08;34.60;;;15.13;;
49384;SDS011;36795;45.028;38.968;2022-08-16T03:55:54;32.53;;;14.77;;
49384;SDS011;36795;45.028;38.968;2022-08-16T03:58:40;33.55;;;15.13;;
49384;SDS011;36795;45.028;38.968;2022-08-16T04:01:27;36.15;;;15.65;;
49384;SDS011;36795;45.028;38.968;2022-08-16T04:04:14;32.78;;;14.32;;
49384;SDS011;36795;45.028;38.968;2022-08-16T04:07:00;28.65;;;14.18;;
49384;SDS011;36795;45.028;38.968;2022-08-16T04:09:48;33.20;;;13.50;;
49384;SDS011;36795;45.028;38.968;2022-08-16T04:12:34;30.73;;;13.75;;
49384;SDS011;36795;45.028;38.968;2022-08-16T04:15:22;32.08;;;14.05;;
49384;SDS011;36795;45.028;38.968;2022-08-16T04:18:12;32.65;;;13.57;;
49384;SDS011;36795;45.028;38.968;2022-08-16T04:21:00;29.92;;;12.85;;
49384;SDS011;36795;45.028;38.968;2022-08-16T04:23:48;28.85;;;12.43;;
49384;SDS011;36795;45.028;38.968;2022-08-16T04:26:35;25.52;;;11.30;;
49384;SDS011;36795;45.028;38.968;2022-08-16T04:29:21;27.25;;;11.98;;
49384;SDS011;36795;45.028;38.968;2022-08-16T04:32:07;29.00;;;12.48;;
49384;SDS011;36795;45.028;38.968;2022-08-16T04:34:54;34.58;;;12.23;;
49384;SDS011;36795;45.028;38.968;2022-08-16T04:37:42;35.08;;;13.23;;
49384;SDS011;36795;45.028;38.968;2022-08-16T04:40:29;27.33;;;11.75;;
49384;SDS011;36795;45.028;38.968;2022-08-16T04:43:16;31.35;;;12.02;;
49384;SDS011;36795;45.028;38.968;2022-08-16T04:46:03;32.65;;;11.63;;
49384;SDS011;36795;45.028;38.968;2022-08-16T04:48:50;27.20;;;12.18;;
49384;SDS011;36795;45.028;38.968;2022-08-16T04:51:37;29.45;;;11.35;;
49384;SDS011;36795;45.028;38.968;2022-08-16T04:54:26;27.10;;;9.60;;
49384;SDS011;36795;45.028;38.968;2022-08-16T04:57:12;27.75;;;10.40;;
49384;SDS011;36795;45.028;38.968;2022-08-16T04:59:59;28.65;;;10.70;;
49384;SDS011;36795;45.028;38.968;2022-08-16T05:02:45;28.48;;;11.73;;
49384;SDS011;36795;45.028;38.968;2022-08-16T05:05:33;25.98;;;10.70;;
49384;SDS011;36795;45.028;38.968;2022-08-16T05:08:25;26.17;;;10.27;;
49384;SDS011;36795;45.028;38.968;2022-08-16T05:11:13;24.35;;;10.32;;
49384;SDS011;36795;45.028;38.968;2022-08-16T05:14:01;28.10;;;10.27;;
49384;SDS011;36795;45.028;38.968;2022-08-16T05:16:48;26.55;;;10.63;;
49384;SDS011;36795;45.028;38.968;2022-08-16T05:19:34;28.95;;;11.02;;
49384;SDS011;36795;45.028;38.968;2022-08-16T05:22:22;29.00;;;10.40;;
49384;SDS011;36795;45.028;38.968;2022-08-16T05:25:09;35.92;;;13.88;;
49384;SDS011;36795;45.028;38.968;2022-08-16T05:27:57;27.52;;;10.13;;
49384;SDS011;36795;45.028;38.968;2022-08-16T05:30:44;31.77;;;10.65;;
49384;SDS011;36795;45.028;38.968;2022-08-16T05:33:31;32.38;;;10.90;;
49384;SDS011;36795;45.028;38.968;2022-08-16T05:36:17;29.85;;;10.82;;
49384;SDS011;36795;45.028;38.968;2022-08-16T05:39:05;26.90;;;9.48;;
49384;SDS011;36795;45.028;38.968;2022-08-16T05:41:53;27.80;;;10.77;;
49384;SDS011;36795;45.028;38.968;2022-08-16T05:44:40;27.73;;;10.70;;
49384;SDS011;36795;45.028;38.968;2022-08-16T05:47:26;25.42;;;10.13;;
49384;SDS011;36795;45.028;38.968;2022-08-16T05:50:13;25.65;;;9.98;;
49384;SDS011;36795;45.028;38.968;2022-08-16T05:52:58;28.80;;;10.55;;
49384;SDS011;36795;45.028;38.968;2022-08-16T05:55:44;28.98;;;10.23;;
49384;SDS011;36795;45.028;38.968;2022-08-16T05:58:30;28.23;;;10.95;;
49384;SDS011;36795;45.028;38.968;2022-08-16T06:01:17;25.65;;;10.25;;
49384;SDS011;36795;45.028;38.968;2022-08-16T06:04:05;26.45;;;10.38;;
49384;SDS011;36795;45.028;38.968;2022-08-16T06:06:52;23.75;;;9.73;;
49384;SDS011;36795;45.028;38.968;2022-08-16T06:09:39;28.27;;;11.40;;
49384;SDS011;36795;45.028;38.968;2022-08-16T06:12:26;26.83;;;10.82;;
49384;SDS011;36795;45.028;38.968;2022-08-16T06:15:16;28.50;;;10.30;;
49384;SDS011;36795;45.028;38.968;2022-08-16T06:18:03;27.35;;;10.02;;
49384;SDS011;36795;45.028;38.968;2022-08-16T06:20:50;24.48;;;10.27;;
49384;SDS011;36795;45.028;38.968;2022-08-16T06:23:36;24.20;;;10.30;;
49384;SDS011;36795;45.028;38.968;2022-08-16T06:26:23;31.00;;;11.10;;
49384;SDS011;36795;45.028;38.968;2022-08-16T06:29:09;27.73;;;10.20;;
49384;SDS011;36795;45.028;38.968;2022-08-16T06:31:55;28.02;;;10.55;;
49384;SDS011;36795;45.028;38.968;2022-08-16T06:34:43;26.70;;;11.18;;
49384;SDS011;36795;45.028;38.968;2022-08-16T06:37:30;29.52;;;10.75;;
49384;SDS011;36795;45.028;38.968;2022-08-16T06:40:16;26.48;;;10.63;;
49384;SDS011;36795;45.028;38.968;2022-08-16T06:43:03;28.77;;;10.75;;
49384;SDS011;36795;45.028;38.968;2022-08-16T06:45:50;32.00;;;11.73;;
49384;SDS011;36795;45.028;38.968;2022-08-16T06:48:37;27.37;;;10.73;;
49384;SDS011;36795;45.028;38.968;2022-08-16T06:51:24;31.02;;;12.18;;
49384;SDS011;36795;45.028;38.968;2022-08-16T06:54:11;26.67;;;13.25;;
49384;SDS011;36795;45.028;38.968;2022-08-16T06:56:57;28.02;;;12.27;;
49384;SDS011;36795;45.028;38.968;2022-08-16T06:59:43;29.75;;;12.07;;
49384;SDS011;36795;45.028;38.968;2022-08-16T07:02:31;28.38;;;11.80;;
49384;SDS011;36795;45.028;38.968;2022-08-16T07:05:18;32.10;;;12.40;;
49384;SDS011;36795;45.028;38.968;2022-08-16T07:08:06;30.33;;;12.50;;
49384;SDS011;36795;45.028;38.968;2022-08-16T07:10:56;33.38;;;13.18;;
49384;SDS011;36795;45.028;38.968;2022-08-16T07:13:43;29.17;;;12.45;;
49384;SDS011;36795;45.028;38.968;2022-08-16T07:16:30;25.58;;;11.48;;
49384;SDS011;36795;45.028;38.968;2022-08-16T07:19:16;29.15;;;12.35;;
49384;SDS011;36795;45.028;38.968;2022-08-16T07:22:02;27.15;;;11.80;;
49384;SDS011;36795;45.028;38.968;2022-08-16T07:24:48;30.00;;;12.15;;
49384;SDS011;36795;45.028;38.968;2022-08-16T07:27:35;26.05;;;12.10;;
49384;SDS011;36795;45.028;38.968;2022-08-16T07:30:24;29.90;;;12.00;;
49384;SDS011;36795;45.028;38.968;2022-08-16T07:33:11;27.10;;;12.30;;
49384;SDS011;36795;45.028;38.968;2022-08-16T07:35:58;28.92;;;12.27;;
49384;SDS011;36795;45.028;38.968;2022-08-16T07:38:45;35.45;;;13.48;;
49384;SDS011;36795;45.028;38.968;2022-08-16T07:41:31;27.73;;;11.35;;
49384;SDS011;36795;45.028;38.968;2022-08-16T07:44:20;28.00;;;12.05;;
49384;SDS011;36795;45.028;38.968;2022-08-16T07:47:07;27.98;;;11.70;;
49384;SDS011;36795;45.028;38.968;2022-08-16T07:49:53;28.87;;;11.70;;
49384;SDS011;36795;45.028;38.968;2022-08-16T07:52:41;26.40;;;11.77;;
49384;SDS011;36795;45.028;38.968;2022-08-16T07:55:28;28.15;;;11.27;;
49384;SDS011;36795;45.028;38.968;2022-08-16T07:58:14;23.98;;;11.02;;
49384;SDS011;36795;45.028;38.968;2022-08-16T08:01:04;26.12;;;11.93;;
49384;SDS011;36795;45.028;38.968;2022-08-16T08:03:51;29.52;;;11.00;;
49384;SDS011;36795;45.028;38.968;2022-08-16T08:06:37;26.58;;;11.18;;
49384;SDS011;36795;45.028;38.968;2022-08-16T08:09:25;26.33;;;11.52;;
49384;SDS011;36795;45.028;38.968;2022-08-16T08:12:11;30.37;;;13.02;;
49384;SDS011;36795;45.028;38.968;2022-08-16T08:14:59;24.73;;;10.77;;
49384;SDS011;36795;45.028;38.968;2022-08-16T08:17:45;28.27;;;11.75;;
49384;SDS011;36795;45.028;38.968;2022-08-16T08:20:34;27.02;;;11.75;;
49384;SDS011;36795;45.028;38.968;2022-08-16T08:23:21;25.33;;;10.98;;
49384;SDS011;36795;45.028;38.968;2022-08-16T08:26:08;28.62;;;12.48;;
49384;SDS011;36795;45.028;38.968;2022-08-16T08:28:54;31.15;;;11.12;;
49384;SDS011;36795;45.028;38.968;2022-08-16T08:31:41;27.35;;;11.63;;
49384;SDS011;36795;45.028;38.968;2022-08-16T08:34:28;25.62;;;11.23;;
49384;SDS011;36795;45.028;38.968;2022-08-16T08:37:15;27.42;;;11.68;;
49384;SDS011;36795;45.028;38.968;2022-08-16T08:40:05;30.60;;;12.25;;
49384;SDS011;36795;45.028;38.968;2022-08-16T08:42:55;25.90;;;11.65;;
49384;SDS011;36795;45.028;38.968;2022-08-16T08:45:42;26.20;;;11.65;;
49384;SDS011;36795;45.028;38.968;2022-08-16T08:48:29;24.37;;;10.18;;
49384;SDS011;36795;45.028;38.968;2022-08-16T08:51:15;28.30;;;10.65;;
49384;SDS011;36795;45.028;38.968;2022-08-16T08:54:05;30.37;;;11.70;;
49384;SDS011;36795;45.028;38.968;2022-08-16T08:56:52;26.87;;;10.93;;
49384;SDS011;36795;45.028;38.968;2022-08-16T08:59:39;26.40;;;11.55;;
49384;SDS011;36795;45.028;38.968;2022-08-16T09:02:26;27.30;;;11.45;;
49384;SDS011;36795;45.028;38.968;2022-08-16T09:05:15;32.28;;;12.05;;
49384;SDS011;36795;45.028;38.968;2022-08-16T09:08:03;29.35;;;12.52;;
49384;SDS011;36795;45.028;38.968;2022-08-16T09:10:52;24.50;;;9.90;;
49384;SDS011;36795;45.028;38.968;2022-08-16T09:13:39;24.87;;;9.10;;
49384;SDS011;36795;45.028;38.968;2022-08-16T09:16:28;25.05;;;8.30;;
49384;SDS011;36795;45.028;38.968;2022-08-16T09:19:14;26.52;;;9.05;;
49384;SDS011;36795;45.028;38.968;2022-08-16T09:22:00;26.45;;;8.85;;
49384;SDS011;36795;45.028;38.968;2022-08-16T09:24:47;25.55;;;8.80;;
49384;SDS011;36795;45.028;38.968;2022-08-16T09:27:34;26.00;;;8.73;;
49384;SDS011;36795;45.028;38.968;2022-08-16T09:30:21;26.85;;;9.02;;
49384;SDS011;36795;45.028;38.968;2022-08-16T09:33:07;27.35;;;9.02;;
49384;SDS011;36795;45.028;38.968;2022-08-16T09:35:53;34.97;;;12.00;;
49384;SDS011;36795;45.028;38.968;2022-08-16T09:38:40;45.33;;;15.50;;
49384;SDS011;36795;45.028;38.968;2022-08-16T09:41:25;37.92;;;12.02;;
49384;SDS011;36795;45.028;38.968;2022-08-16T09:44:12;33.50;;;10.25;;
49384;SDS011;36795;45.028;38.968;2022-08-16T09:46:58;28.50;;;9.60;;
49384;SDS011;36795;45.028;38.968;2022-08-16T09:49:45;27.27;;;9.23;;
49384;SDS011;36795;45.028;38.968;2022-08-16T09:52:31;27.02;;;8.45;;
49384;SDS011;36795;45.028;38.968;2022-08-16T09:55:20;29.15;;;8.38;;
49384;SDS011;36795;45.028;38.968;2022-08-16T09:58:06;24.52;;;7.87;;
49384;SDS011;36795;45.028;38.968;2022-08-16T10:00:52;23.45;;;7.15;;
49384;SDS011;36795;45.028;38.968;2022-08-16T10:03:39;25.50;;;7.68;;
49384;SDS011;36795;45.028;38.968;2022-08-16T10:06:25;22.85;;;8.02;;
49384;SDS011;36795;45.028;38.968;2022-08-16T10:09:12;27.08;;;8.23;;
49384;SDS011;36795;45.028;38.968;2022-08-16T10:11:59;26.65;;;7.47;;
49384;SDS011;36795;45.028;38.968;2022-08-16T10:15:04;31.33;;;8.43;;
49384;SDS011;36795;45.028;38.968;2022-08-16T10:17:53;27.45;;;7.45;;
49384;SDS011;36795;45.028;38.968;2022-08-16T10:20:42;24.90;;;7.87;;
49384;SDS011;36795;45.028;38.968;2022-08-16T10:23:29;23.58;;;7.65;;
49384;SDS011;36795;45.028;38.968;2022-08-16T10:26:15;19.90;;;6.35;;
49384;SDS011;36795;45.028;38.968;2022-08-16T10:29:02;23.83;;;7.93;;
49384;SDS011;36795;45.028;38.968;2022-08-16T10:31:50;20.90;;;6.75;;
49384;SDS011;36795;45.028;38.968;2022-08-16T10:34:36;21.73;;;6.95;;
49384;SDS011;36795;45.028;38.968;2022-08-16T10:37:22;23.17;;;7.47;;
49384;SDS011;36795;45.028;38.968;2022-08-16T10:40:08;21.65;;;7.22;;
49384;SDS011;36795;45.028;38.968;2022-08-16T10:42:56;20.23;;;6.82;;
49384;SDS011;36795;45.028;38.968;2022-08-16T10:45:44;21.50;;;6.72;;
49384;SDS011;36795;45.028;38.968;2022-08-16T10:48:32;20.05;;;7.30;;
49384;SDS011;36795;45.028;38.968;2022-08-16T10:51:18;24.45;;;7.50;;
49384;SDS011;36795;45.028;38.968;2022-08-16T10:54:04;20.30;;;7.45;;
49384;SDS011;36795;45.028;38.968;2022-08-16T10:56:50;24.87;;;8.82;;
49384;SDS011;36795;45.028;38.968;2022-08-16T10:59:38;27.62;;;8.75;;
49384;SDS011;36795;45.028;38.968;2022-08-16T11:02:25;20.25;;;7.80;;
49384;SDS011;36795;45.028;38.968;2022-08-16T11:05:12;24.20;;;9.05;;
49384;SDS011;36795;45.028;38.968;2022-08-16T11:08:00;25.33;;;8.25;;
49384;SDS011;36795;45.028;38.968;2022-08-16T11:10:48;24.33;;;9.60;;
49384;SDS011;36795;45.028;38.968;2022-08-16T11:13:35;26.30;;;9.30;;
49384;SDS011;36795;45.028;38.968;2022-08-16T11:16:21;26.55;;;8.43;;
49384;SDS011;36795;45.028;38.968;2022-08-16T11:19:07;25.02;;;8.70;;
49384;SDS011;36795;45.028;38.968;2022-08-16T11:21:54;23.75;;;9.45;;
49384;SDS011;36795;45.028;38.968;2022-08-16T11:24:40;25.30;;;10.00;;
49384;SDS011;36795;45.028;38.968;2022-08-16T11:27:27;22.87;;;8.75;;
49384;SDS011;36795;45.028;38.968;2022-08-16T11:30:13;25.58;;;9.07;;
49384;SDS011;36795;45.028;38.968;2022-08-16T11:33:01;25.37;;;9.57;;
49384;SDS011;36795;45.028;38.968;2022-08-16T11:35:47;23.40;;;8.63;;
49384;SDS011;36795;45.028;38.968;2022-08-16T11:38:33;24.67;;;8.88;;
49384;SDS011;36795;45.028;38.968;2022-08-16T11:41:19;21.20;;;8.57;;
49384;SDS011;36795;45.028;38.968;2022-08-16T11:44:06;26.02;;;8.55;;
49384;SDS011;36795;45.028;38.968;2022-08-16T11:46:52;26.48;;;8.63;;
49384;SDS011;36795;45.028;38.968;2022-08-16T11:49:38;26.75;;;11.45;;
49384;SDS011;36795;45.028;38.968;2022-08-16T11:52:27;22.62;;;8.13;;
49384;SDS011;36795;45.028;38.968;2022-08-16T11:55:13;23.40;;;8.57;;
49384;SDS011;36795;45.028;38.968;2022-08-16T11:58:00;22.15;;;8.30;;
49384;SDS011;36795;45.028;38.968;2022-08-16T12:00:47;21.98;;;7.65;;
49384;SDS011;36795;45.028;38.968;2022-08-16T12:03:34;20.83;;;7.68;;
49384;SDS011;36795;45.028;38.968;2022-08-16T12:06:20;24.37;;;8.93;;
49384;SDS011;36795;45.028;38.968;2022-08-16T12:09:07;22.10;;;7.53;;
49384;SDS011;36795;45.028;38.968;2022-08-16T12:11:52;22.77;;;7.95;;
49384;SDS011;36795;45.028;38.968;2022-08-16T12:14:39;22.15;;;7.65;;
49384;SDS011;36795;45.028;38.968;2022-08-16T12:17:29;21.55;;;8.70;;
49384;SDS011;36795;45.028;38.968;2022-08-16T12:20:18;21.67;;;8.02;;
49384;SDS011;36795;45.028;38.968;2022-08-16T12:23:06;24.10;;;11.70;;
49384;SDS011;36795;45.028;38.968;2022-08-16T12:25:53;22.13;;;8.40;;
49384;SDS011;36795;45.028;38.968;2022-08-16T12:28:39;19.87;;;8.38;;
49384;SDS011;36795;45.028;38.968;2022-08-16T12:31:26;23.45;;;8.98;;
49384;SDS011;36795;45.028;38.968;2022-08-16T12:34:11;23.23;;;8.88;;
49384;SDS011;36795;45.028;38.968;2022-08-16T12:36:58;22.92;;;9.18;;
49384;SDS011;36795;45.028;38.968;2022-08-16T12:39:47;27.73;;;8.98;;
49384;SDS011;36795;45.028;38.968;2022-08-16T12:42:33;23.38;;;8.93;;
49384;SDS011;36795;45.028;38.968;2022-08-16T12:45:20;23.23;;;9.65;;
49384;SDS011;36795;45.028;38.968;2022-08-16T12:48:09;22.48;;;8.07;;
49384;SDS011;36795;45.028;38.968;2022-08-16T12:51:16;24.80;;;8.70;;
49384;SDS011;36795;45.028;38.968;2022-08-16T12:54:05;21.27;;;8.57;;
49384;SDS011;36795;45.028;38.968;2022-08-16T12:56:53;22.10;;;9.10;;
49384;SDS011;36795;45.028;38.968;2022-08-16T12:59:40;21.20;;;8.43;;
49384;SDS011;36795;45.028;38.968;2022-08-16T13:02:26;22.90;;;9.20;;
49384;SDS011;36795;45.028;38.968;2022-08-16T13:05:13;22.70;;;9.30;;
49384;SDS011;36795;45.028;38.968;2022-08-16T13:08:01;26.52;;;9.13;;
49384;SDS011;36795;45.028;38.968;2022-08-16T13:10:47;21.90;;;8.23;;
49384;SDS011;36795;45.028;38.968;2022-08-16T13:13:34;24.70;;;9.25;;
49384;SDS011;36795;45.028;38.968;2022-08-16T13:16:21;22.08;;;8.65;;
49384;SDS011;36795;45.028;38.968;2022-08-16T13:19:07;24.80;;;8.27;;
49384;SDS011;36795;45.028;38.968;2022-08-16T13:21:53;21.65;;;8.90;;
49384;SDS011;36795;45.028;38.968;2022-08-16T13:24:39;23.27;;;9.00;;
49384;SDS011;36795;45.028;38.968;2022-08-16T13:27:26;24.65;;;9.60;;
49384;SDS011;36795;45.028;38.968;2022-08-16T13:30:12;22.05;;;7.78;;
49384;SDS011;36795;45.028;38.968;2022-08-16T13:32:58;25.88;;;8.52;;
49384;SDS011;36795;45.028;38.968;2022-08-16T13:35:46;26.27;;;11.50;;
49384;SDS011;36795;45.028;38.968;2022-08-16T13:38:35;30.37;;;13.65;;
49384;SDS011;36795;45.028;38.968;2022-08-16T13:41:22;26.67;;;9.63;;
49384;SDS011;36795;45.028;38.968;2022-08-16T13:44:08;25.10;;;9.68;;
49384;SDS011;36795;45.028;38.968;2022-08-16T13:46:54;20.98;;;7.87;;
49384;SDS011;36795;45.028;38.968;2022-08-16T13:49:42;23.30;;;8.15;;
49384;SDS011;36795;45.028;38.968;2022-08-16T13:52:30;21.37;;;7.45;;
49384;SDS011;36795;45.028;38.968;2022-08-16T13:55:16;21.30;;;7.95;;
49384;SDS011;36795;45.028;38.968;2022-08-16T13:58:02;24.33;;;8.05;;
49384;SDS011;36795;45.028;38.968;2022-08-16T14:00:49;21.33;;;7.80;;
49384;SDS011;36795;45.028;38.968;2022-08-16T14:03:39;23.58;;;8.43;;
49384;SDS011;36795;45.028;38.968;2022-08-16T14:06:25;28.65;;;8.35;;
49384;SDS011;36795;45.028;38.968;2022-08-16T14:09:12;22.73;;;8.32;;
49384;SDS011;36795;45.028;38.968;2022-08-16T14:11:59;23.50;;;8.27;;
49384;SDS011;36795;45.028;38.968;2022-08-16T14:14:46;22.80;;;8.20;;
49384;SDS011;36795;45.028;38.968;2022-08-16T14:17:34;25.75;;;8.50;;
49384;SDS011;36795;45.028;38.968;2022-08-16T14:20:21;22.58;;;7.85;;
49384;SDS011;36795;45.028;38.968;2022-08-16T14:23:08;21.60;;;7.87;;
49384;SDS011;36795;45.028;38.968;2022-08-16T14:25:55;25.58;;;8.23;;
49384;SDS011;36795;45.028;38.968;2022-08-16T14:28:41;21.98;;;7.97;;
49384;SDS011;36795;45.028;38.968;2022-08-16T14:31:28;21.17;;;8.00;;
49384;SDS011;36795;45.028;38.968;2022-08-16T14:34:14;20.30;;;8.20;;
49384;SDS011;36795;45.028;38.968;2022-08-16T14:37:00;26.87;;;8.52;;
49384;SDS011;36795;45.028;38.968;2022-08-16T14:39:49;23.48;;;7.97;;
49384;SDS011;36795;45.028;38.968;2022-08-16T14:42:35;28.75;;;13.70;;
49384;SDS011;36795;45.028;38.968;2022-08-16T14:45:23;22.42;;;9.40;;
49384;SDS011;36795;45.028;38.968;2022-08-16T14:48:11;24.92;;;8.93;;
49384;SDS011;36795;45.028;38.968;2022-08-16T14:50:57;29.67;;;10.63;;
49384;SDS011;36795;45.028;38.968;2022-08-16T14:53:44;27.42;;;10.32;;
49384;SDS011;36795;45.028;38.968;2022-08-16T14:56:30;25.40;;;10.00;;
49384;SDS011;36795;45.028;38.968;2022-08-16T14:59:16;26.50;;;10.23;;
49384;SDS011;36795;45.028;38.968;2022-08-16T15:02:02;23.55;;;9.43;;
49384;SDS011;36795;45.028;38.968;2022-08-16T15:04:52;25.50;;;9.95;;
49384;SDS011;36795;45.028;38.968;2022-08-16T15:07:38;26.15;;;10.60;;
49384;SDS011;36795;45.028;38.968;2022-08-16T15:10:24;28.77;;;10.77;;
49384;SDS011;36795;45.028;38.968;2022-08-16T15:13:10;26.50;;;10.55;;
49384;SDS011;36795;45.028;38.968;2022-08-16T15:15:57;24.15;;;9.90;;
49384;SDS011;36795;45.028;38.968;2022-08-16T15:18:43;24.50;;;10.38;;
49384;SDS011;36795;45.028;38.968;2022-08-16T15:21:30;27.87;;;11.43;;
49384;SDS011;36795;45.028;38.968;2022-08-16T15:24:16;25.17;;;11.48;;
49384;SDS011;36795;45.028;38.968;2022-08-16T15:27:03;30.30;;;12.23;;
49384;SDS011;36795;45.028;38.968;2022-08-16T15:29:50;24.73;;;10.73;;
49384;SDS011;36795;45.028;38.968;2022-08-16T15:32:36;22.70;;;10.00;;
49384;SDS011;36795;45.028;38.968;2022-08-16T15:35:22;23.20;;;9.15;;
49384;SDS011;36795;45.028;38.968;2022-08-16T15:38:09;24.45;;;10.43;;
49384;SDS011;36795;45.028;38.968;2022-08-16T15:40:55;23.17;;;9.10;;
49384;SDS011;36795;45.028;38.968;2022-08-16T15:43:41;23.92;;;9.95;;
49384;SDS011;36795;45.028;38.968;2022-08-16T15:46:27;24.90;;;9.98;;
49384;SDS011;36795;45.028;38.968;2022-08-16T15:49:13;29.35;;;10.88;;
49384;SDS011;36795;45.028;38.968;2022-08-16T15:51:59;23.38;;;10.48;;
49384;SDS011;36795;45.028;38.968;2022-08-16T15:54:46;23.87;;;9.98;;
49384;SDS011;36795;45.028;38.968;2022-08-16T15:57:32;23.05;;;9.30;;
49384;SDS011;36795;45.028;38.968;2022-08-16T16:00:20;25.90;;;9.43;;
49384;SDS011;36795;45.028;38.968;2022-08-16T16:03:11;22.87;;;9.13;;
49384;SDS011;36795;45.028;38.968;2022-08-16T16:06:00;21.95;;;9.05;;
49384;SDS011;36795;45.028;38.968;2022-08-16T16:08:47;24.63;;;7.40;;
49384;SDS011;36795;45.028;38.968;2022-08-16T16:11:33;20.12;;;6.82;;
49384;SDS011;36795;45.028;38.968;2022-08-16T16:14:19;18.92;;;6.37;;